Time;durP1;ratioP1;P1;durP2;ratioP2;P2;SDS_P1;SDS_P2;PMS_P1;PMS_P2;Temp;Humidity;BMP_temperature;BMP_pressure;BME280_temperature;BME280_humidity;BME280_pressure;Samples;Min_cycle;Max_cycle;Signal;HPM_P1;HPM_P2
2020/12/11 00:01:34;;;;;;;41.90;23.25;;;;;;;0.67;85.78;99737.16;1791304;79;25688;-56
2020/12/11 00:04:01;;;;;;;41.60;20.95;;;;;;;0.68;85.77;99735.57;1791510;80;26953;-54
2020/12/11 00:06:27;;;;;;;41.85;22.82;;;;;;;0.69;85.76;99727.05;1791218;79;26507;-54
2020/12/11 00:08:54;;;;;;;40.40;22.17;;;;;;;0.69;85.73;99720.39;1791378;79;26365;-51
2020/12/11 00:11:29;;;;;;;40.58;21.80;;;;;;;0.70;85.79;99725.45;1791169;80;25717;-54
2020/12/11 00:13:56;;;;;;;42.00;23.40;;;;;;;0.70;85.88;99726.00;1791429;80;25751;-52
2020/12/11 00:16:23;;;;;;;36.53;21.42;;;;;;;0.71;85.80;99731.58;1756728;81;26672;-53
2020/12/11 00:18:50;;;;;;;36.85;22.02;;;;;;;0.70;85.74;99724.66;1740692;82;25688;-52
2020/12/11 00:21:17;;;;;;;40.88;22.65;;;;;;;0.70;85.72;99729.98;1740545;81;25770;-53
2020/12/11 00:23:43;;;;;;;40.48;23.32;;;;;;;0.71;85.83;99728.91;1740831;81;25719;-51
2020/12/11 00:26:10;;;;;;;40.90;22.85;;;;;;;0.69;85.79;99731.83;1740764;81;25729;-53
2020/12/11 00:28:37;;;;;;;38.83;21.07;;;;;;;0.70;85.80;99735.31;1740770;81;26041;-51
2020/12/11 00:31:04;;;;;;;39.03;21.30;;;;;;;0.69;85.88;99735.83;1740944;82;25765;-52
2020/12/11 00:33:31;;;;;;;39.67;22.52;;;;;;;0.69;85.90;99739.81;1741801;82;25839;-51
2020/12/11 00:35:58;;;;;;;41.58;22.62;;;;;;;0.69;86.00;99733.16;1741797;82;25643;-50
2020/12/11 00:38:29;;;;;;;38.92;22.30;;;;;;;0.69;86.02;99731.83;1742060;82;25723;-51
2020/12/11 00:40:54;;;;;;;41.20;23.27;;;;;;;0.69;85.91;99744.34;1757873;80;25706;-50
2020/12/11 00:43:21;;;;;;;39.53;23.27;;;;;;;0.70;85.91;99744.09;1758432;81;25791;-50
2020/12/11 00:45:47;;;;;;;38.20;22.73;;;;;;;0.70;85.87;99744.09;1754087;81;25614;-50
2020/12/11 00:48:14;;;;;;;38.13;21.12;;;;;;;0.72;85.94;99746.50;1758604;81;25718;-52
2020/12/11 00:50:41;;;;;;;39.15;22.07;;;;;;;0.72;85.97;99751.29;1758631;81;25631;-52
2020/12/11 00:53:07;;;;;;;43.92;23.50;;;;;;;0.65;85.97;99738.73;1753985;81;26147;-53
2020/12/11 00:55:34;;;;;;;42.20;23.73;;;;;;;0.72;85.98;99748.63;1760275;81;26316;-54
2020/12/11 00:58:03;;;;;;;39.78;22.40;;;;;;;0.73;86.03;99753.41;1734128;82;25681;-53
2020/12/11 01:00:30;;;;;;;40.73;22.90;;;;;;;0.74;85.99;99751.03;1763127;81;25660;-50
2020/12/11 01:02:56;;;;;;;41.83;22.85;;;;;;;0.77;86.01;99755.85;1764565;81;25825;-53
2020/12/11 01:05:23;;;;;;;41.68;23.52;;;;;;;0.75;86.00;99756.64;1764600;81;27104;-52
2020/12/11 01:07:50;;;;;;;43.50;24.18;;;;;;;0.78;86.01;99753.98;1763146;81;26285;-50
2020/12/11 01:10:16;;;;;;;41.00;23.25;;;;;;;0.77;85.98;99754.52;1764614;81;25735;-53
2020/12/11 01:12:43;;;;;;;39.67;22.67;;;;;;;0.77;85.95;99753.19;1733986;82;25614;-53
2020/12/11 01:15:09;;;;;;;38.63;21.50;;;;;;;0.78;86.03;99758.77;1732583;82;25797;-53
2020/12/11 01:17:36;;;;;;;39.55;22.40;;;;;;;0.77;86.04;99743.88;1763234;81;26169;-52
2020/12/11 01:20:04;;;;;;;42.85;23.50;;;;;;;0.78;86.00;99746.78;1764380;81;25787;-53
2020/12/11 01:22:32;;;;;;;40.12;22.62;;;;;;;0.78;86.02;99752.11;1764539;81;25713;-54
2020/12/11 01:25:02;;;;;;;42.60;22.15;;;;;;;0.80;86.00;99749.20;1763127;81;25581;-52
2020/12/11 01:27:29;;;;;;;40.60;22.75;;;;;;;0.79;86.05;99751.60;1764577;81;25613;-50
2020/12/11 01:29:55;;;;;;;38.55;22.05;;;;;;;0.79;86.01;99755.59;1763187;81;26309;-50
2020/12/11 01:32:22;;;;;;;36.08;21.17;;;;;;;0.78;86.01;99747.33;1764329;81;25837;-49
2020/12/11 01:34:48;;;;;;;40.08;22.22;;;;;;;0.79;86.04;99753.73;1763084;81;25651;-48
2020/12/11 01:37:15;;;;;;;37.83;21.35;;;;;;;0.80;86.13;99751.86;1764473;81;25670;-48
2020/12/11 01:39:42;;;;;;;40.40;21.65;;;;;;;0.80;86.06;99754.52;1734153;82;25669;-51
2020/12/11 01:42:12;;;;;;;36.08;21.20;;;;;;;0.78;86.05;99757.44;1730146;82;25888;-53
2020/12/11 01:44:49;;;;;;;38.25;22.32;;;;;;;0.78;86.13;99752.11;1739433;82;26308;-48
2020/12/11 01:47:25;;;;;;;38.95;21.52;;;;;;;0.85;86.17;99754.05;1887056;76;33419;-50
2020/12/11 01:49:54;;;;;;;37.38;22.45;;;;;;;0.79;86.17;99747.61;1857812;77;25675;-53
2020/12/11 01:52:21;;;;;;;45.05;23.15;;;;;;;0.79;86.20;99752.94;1858276;77;26758;-51
2020/12/11 01:54:48;;;;;;;39.13;22.55;;;;;;;0.79;86.17;99752.94;1857817;77;25643;-52
2020/12/11 01:57:26;;;;;;;36.17;20.82;;;;;;;0.78;86.12;99742.80;1857891;77;25942;-50
2020/12/11 01:59:54;;;;;;;43.10;22.27;;;;;;;0.78;86.14;99744.66;1857870;77;25632;-54
2020/12/11 02:02:21;;;;;;;40.15;23.07;;;;;;;0.78;86.25;99745.45;1857889;77;25603;-49
2020/12/11 02:04:49;;;;;;;38.00;22.35;;;;;;;0.79;86.18;99744.95;1857880;77;25890;-54
2020/12/11 02:07:15;;;;;;;43.33;24.35;;;;;;;0.78;86.25;99743.33;1857729;77;25655;-53
2020/12/11 02:09:42;;;;;;;42.43;21.62;;;;;;;0.77;86.28;99746.53;1857745;77;25663;-55
2020/12/11 02:12:09;;;;;;;38.98;21.82;;;;;;;0.78;86.28;99747.33;1857695;77;25648;-49
2020/12/11 02:14:36;;;;;;;40.88;23.67;;;;;;;0.78;86.22;99741.46;1857799;77;25703;-54
2020/12/11 02:17:06;;;;;;;40.75;22.00;;;;;;;0.78;86.25;99747.33;1857734;77;25692;-49
2020/12/11 02:19:33;;;;;;;;;;;;;;;0.78;86.24;99747.33;1860415;77;25651;-50
2020/12/11 02:22:02;;;;;;;42.70;21.42;;;;;;;0.78;86.27;99741.46;1857747;77;25658;-49
2020/12/11 02:24:30;;;;;;;43.50;23.20;;;;;;;0.78;86.30;99742.00;1857833;77;25651;-55
2020/12/11 02:26:58;;;;;;;41.37;22.50;;;;;;;0.78;86.31;99738.01;1857852;77;25564;-56
2020/12/11 02:29:25;;;;;;;41.95;22.27;;;;;;;0.78;86.30;99732.69;1857922;77;25685;-54
2020/12/11 02:31:53;;;;;;;43.13;22.98;;;;;;;0.77;86.42;99731.89;1857618;77;25869;-48
2020/12/11 02:34:22;;;;;;;41.53;23.10;;;;;;;0.78;86.32;99736.67;1857717;77;25675;-56
2020/12/11 02:36:49;;;;;;;44.45;23.35;;;;;;;0.77;86.47;99731.89;1857751;77;25577;-56
2020/12/11 02:39:16;;;;;;;38.40;22.60;;;;;;;0.75;86.46;99722.03;1857727;77;25778;-48
2020/12/11 02:41:48;;;;;;;46.13;22.77;;;;;;;0.76;86.44;99729.48;1858008;77;26896;-56
2020/12/11 02:44:15;;;;;;;42.70;22.95;;;;;;;0.76;86.48;99729.48;1857657;77;25548;-53
2020/12/11 02:46:41;;;;;;;42.90;23.90;;;;;;;0.76;86.48;99728.94;1857508;77;25544;-51
2020/12/11 02:49:09;;;;;;;43.05;22.35;;;;;;;0.77;86.45;99734.55;1857710;77;25704;-56
2020/12/11 02:51:35;;;;;;;37.28;21.45;;;;;;;0.76;86.44;99730.27;1857755;77;25651;-58
2020/12/11 02:54:02;;;;;;;44.38;22.80;;;;;;;0.75;86.46;99730.02;1857791;77;25952;-57
2020/12/11 02:56:28;;;;;;;41.35;22.62;;;;;;;0.77;86.45;99727.07;1857720;77;25624;-57
2020/12/11 02:58:55;;;;;;;41.80;23.15;;;;;;;0.78;86.48;99720.70;1857138;77;25771;-56
2020/12/11 03:01:26;;;;;;;37.55;20.72;;;;;;;0.78;86.48;99720.70;1857104;77;25580;-56
2020/12/11 03:03:56;;;;;;;44.42;23.92;;;;;;;0.78;86.49;99718.04;1857314;77;25636;-57
2020/12/11 03:09:03;;;;;;;39.38;22.25;;;;;;;0.85;86.53;99715.94;1887020;76;34166;-48
2020/12/11 03:11:30;;;;;;;41.02;22.30;;;;;;;0.79;86.49;99711.67;1857798;77;25757;-56
2020/12/11 03:13:58;;;;;;;40.73;22.85;;;;;;;0.79;86.50;99709.80;1857806;77;26178;-55
2020/12/11 03:16:24;;;;;;;39.95;21.62;;;;;;;0.79;86.49;99709.00;1857679;77;25703;-46
2020/12/11 03:18:51;;;;;;;43.33;22.93;;;;;;;0.78;86.56;99707.39;1857841;77;25729;-47
2020/12/11 03:21:17;;;;;;;44.48;22.95;;;;;;;0.77;86.47;99713.25;1857750;77;26336;-55
2020/12/11 03:23:45;;;;;;;42.62;22.45;;;;;;;0.77;86.56;99712.43;1857869;77;25595;-50
2020/12/11 03:26:11;;;;;;;39.38;22.40;;;;;;;0.77;86.55;99713.77;1857890;77;26848;-49
2020/12/11 03:28:38;;;;;;;44.55;22.05;;;;;;;0.77;86.56;99713.77;1857618;77;25592;-54
2020/12/11 03:31:05;;;;;;;37.58;20.08;;;;;;;0.76;86.58;99708.98;1857746;77;25591;-55
2020/12/11 03:33:31;;;;;;;37.90;21.75;;;;;;;0.76;86.56;99720.16;1857780;77;25612;-53
2020/12/11 03:35:58;;;;;;;41.45;21.57;;;;;;;0.76;86.53;99717.50;1857782;77;25206;-50
2020/12/11 03:38:24;;;;;;;33.80;20.12;;;;;;;0.76;86.55;99710.84;1857771;77;27141;-56
2020/12/11 03:40:51;;;;;;;37.48;20.95;;;;;;;0.76;86.63;99705.52;1857673;77;25692;-55
2020/12/11 03:43:18;;;;;;;41.37;21.35;;;;;;;0.77;86.61;99716.42;1857674;77;25540;-52
2020/12/11 03:45:44;;;;;;;35.60;21.35;;;;;;;0.75;86.63;99715.38;1857689;77;25604;-57
2020/12/11 03:48:11;;;;;;;32.17;18.70;;;;;;;0.74;86.67;99719.09;1857714;77;25600;-56
2020/12/11 03:50:38;;;;;;;40.65;21.45;;;;;;;0.73;86.73;99722.29;1857775;77;26159;-54
2020/12/11 03:53:04;;;;;;;42.03;22.65;;;;;;;0.74;86.76;99727.08;1857668;77;25545;-55
2020/12/11 03:55:32;;;;;;;42.67;22.22;;;;;;;0.73;86.80;99724.95;1857850;77;25601;-55
2020/12/11 03:57:59;;;;;;;41.33;22.25;;;;;;;0.73;86.80;99729.45;1857725;77;25573;-49
2020/12/11 04:00:25;;;;;;;43.38;22.58;;;;;;;0.71;86.78;99735.03;1857788;77;25643;-55
2020/12/11 04:02:52;;;;;;;42.73;22.50;;;;;;;0.71;86.82;99728.38;1857690;77;27211;-52
2020/12/11 04:05:19;;;;;;;45.25;22.15;;;;;;;0.72;86.80;99734.52;1857685;77;25676;-53
2020/12/11 04:07:45;;;;;;;42.05;22.30;;;;;;;0.71;86.93;99737.69;1849265;77;26288;-54
2020/12/11 04:10:12;;;;;;;46.70;23.12;;;;;;;0.72;86.93;99743.30;1832473;77;25581;-55
2020/12/11 04:12:39;;;;;;;44.85;22.62;;;;;;;0.71;86.94;99744.34;1832508;78;25564;-51
2020/12/11 04:15:06;;;;;;;45.48;22.22;;;;;;;0.73;86.91;99742.25;1832515;78;26154;-55
2020/12/11 04:17:32;;;;;;;44.50;23.32;;;;;;;0.75;86.92;99744.66;1832395;78;25791;-56
2020/12/11 04:19:59;;;;;;;46.28;23.83;;;;;;;0.76;87.07;99745.45;1832018;78;26025;-54
2020/12/11 04:22:26;;;;;;;44.88;22.60;;;;;;;0.76;86.95;99744.13;1831988;78;25613;-56
2020/12/11 04:24:52;;;;;;;44.10;22.58;;;;;;;0.76;86.93;99746.25;1831873;78;25609;-56
2020/12/11 04:27:19;;;;;;;48.70;22.98;;;;;;;0.76;86.88;99740.92;1831854;78;26205;-50
2020/12/11 04:29:45;;;;;;;45.90;21.75;;;;;;;0.78;86.84;99735.34;1831818;78;25696;-51
2020/12/11 04:32:14;;;;;;;45.48;22.32;;;;;;;0.78;86.91;99726.81;1831832;76;25786;-56
2020/12/11 04:34:40;;;;;;;44.85;23.05;;;;;;;0.78;86.92;99736.14;1831923;78;25594;-52
2020/12/11 04:37:07;;;;;;;48.35;24.43;;;;;;;0.78;87.06;99736.14;1831962;78;25581;-54
2020/12/11 04:39:34;;;;;;;46.98;24.07;;;;;;;0.78;86.94;99732.69;1831830;76;26231;-56
2020/12/11 04:42:02;;;;;;;40.92;21.37;;;;;;;0.77;86.94;99742.54;1801547;78;25591;-55
2020/12/11 04:44:29;;;;;;;49.25;23.00;;;;;;;0.77;86.89;99739.05;1831950;78;26325;-56
2020/12/11 04:46:56;;;;;;;44.48;22.82;;;;;;;0.76;87.01;99740.13;1831855;78;25715;-50
2020/12/11 04:49:23;;;;;;;44.45;21.55;;;;;;;0.77;87.12;99742.54;1831997;78;25630;-55
2020/12/11 04:51:51;;;;;;;46.98;23.38;;;;;;;0.76;87.11;99736.93;1831922;78;26326;-56
2020/12/11 04:54:21;;;;;;;46.77;22.73;;;;;;;0.76;87.00;99734.27;1831806;78;25569;-52
2020/12/11 04:56:52;;;;;;;42.85;21.57;;;;;;;0.75;87.05;99730.02;1832113;78;25667;-56
2020/12/11 04:59:19;;;;;;;45.80;24.07;;;;;;;0.74;87.06;99734.52;1831915;78;25596;-55
2020/12/11 05:01:46;;;;;;;55.28;24.72;;;;;;;0.74;86.98;99734.52;1832020;78;25500;-54
2020/12/11 05:04:13;;;;;;;46.42;22.90;;;;;;;0.76;87.08;99737.47;1831869;78;25694;-54
2020/12/11 05:06:39;;;;;;;48.40;22.22;;;;;;;0.77;87.07;99738.55;1831853;78;25683;-55
2020/12/11 05:09:16;;;;;;;46.95;23.12;;;;;;;0.78;87.07;99740.67;1831650;76;26302;-56
2020/12/11 05:11:44;;;;;;;46.92;22.62;;;;;;;0.78;87.10;99746.78;1831835;78;25784;-55
2020/12/11 05:14:30;;;;;;;47.48;22.37;;;;;;;0.79;87.08;99741.75;1831904;78;25616;-51
2020/12/11 05:17:05;;;;;;;42.88;21.30;;;;;;;0.77;87.07;99730.56;1831891;78;26168;-56
2020/12/11 05:19:36;;;;;;;53.02;22.55;;;;;;;0.78;87.07;99738.01;1831884;78;25590;-55
2020/12/11 05:22:11;;;;;;;49.18;23.22;;;;;;;0.78;87.11;99736.67;1831562;78;25632;-55
2020/12/11 05:24:49;;;;;;;44.98;23.73;;;;;;;0.80;87.09;99745.20;1831815;78;25660;-55
2020/12/11 05:27:43;;;;;;;49.15;23.22;;;;;;;0.80;87.08;99742.54;1831846;78;25616;-55
2020/12/11 05:30:18;;;;;;;56.75;24.02;;;;;;;0.79;87.06;99743.08;1831627;78;25939;-56
2020/12/11 05:32:54;;;;;;;55.43;23.95;;;;;;;0.79;87.13;99747.61;1831750;78;25608;-55
2020/12/11 05:35:28;;;;;;;54.33;24.15;;;;;;;0.78;87.11;99749.98;1831904;78;25626;-55
2020/12/11 05:38:09;;;;;;;58.35;23.35;;;;;;;0.78;87.13;99756.11;1831832;77;25661;-45
2020/12/11 05:40:40;;;;;;;49.73;23.65;;;;;;;0.79;87.17;99755.59;1831943;78;25580;-52
2020/12/11 05:43:18;;;;;;;46.92;22.52;;;;;;;0.80;87.17;99755.34;1831934;78;25897;-51
2020/12/11 05:45:59;;;;;;;51.02;23.42;;;;;;;0.80;87.11;99757.19;1832062;78;26355;-53
2020/12/11 05:48:40;;;;;;;50.92;24.00;;;;;;;0.79;87.11;99759.05;1831892;78;25616;-53
2020/12/11 05:51:14;;;;;;;51.10;22.50;;;;;;;0.78;87.17;99752.11;1831730;78;25743;-53
2020/12/11 05:53:42;;;;;;;48.60;23.95;;;;;;;0.78;87.16;99750.78;1831927;78;25648;-51
2020/12/11 05:56:09;;;;;;;52.95;23.15;;;;;;;0.79;87.15;99759.59;1831893;78;26251;-54
2020/12/11 05:58:36;;;;;;;51.92;24.50;;;;;;;0.79;87.16;99756.93;1831723;78;25542;-56
2020/12/11 06:01:03;;;;;;;47.27;23.25;;;;;;;0.79;87.20;99757.72;1831856;78;25564;-54
2020/12/11 06:03:30;;;;;;;49.48;25.45;;;;;;;0.79;87.16;99755.59;1831751;78;25708;-54
2020/12/11 06:05:59;;;;;;;49.88;24.70;;;;;;;0.80;87.21;99758.00;1831875;78;25650;-54
2020/12/11 06:08:27;;;;;;;46.15;23.42;;;;;;;0.80;87.13;99763.33;1831493;76;26336;-53
2020/12/11 06:10:54;;;;;;;53.23;25.10;;;;;;;0.81;87.15;99766.25;1831697;78;25695;-55
2020/12/11 06:13:38;;;;;;;47.43;22.77;;;;;;;0.81;87.16;99767.58;1831935;78;25566;-54
2020/12/11 06:16:09;;;;;;;45.25;22.13;;;;;;;0.81;87.16;99777.44;1829534;78;25646;-53
2020/12/11 06:18:37;;;;;;;52.53;24.67;;;;;;;0.81;87.13;99785.42;1831865;78;25546;-50
2020/12/11 06:21:05;;;;;;;50.77;24.57;;;;;;;0.82;87.24;99785.67;1829326;78;26760;-52
2020/12/11 06:23:32;;;;;;;50.70;23.05;;;;;;;0.82;87.24;99785.67;1831757;78;26062;-53
2020/12/11 06:26:03;;;;;;;49.85;22.73;;;;;;;0.82;87.16;99783.02;1831829;78;25624;-45
2020/12/11 06:28:41;;;;;;;49.58;23.47;;;;;;;0.82;87.17;99780.35;1831772;78;25621;-54
2020/12/11 06:31:21;;;;;;;53.23;24.10;;;;;;;0.82;87.16;99782.51;1831690;78;25638;-55
2020/12/11 06:33:53;;;;;;;49.80;24.75;;;;;;;0.84;87.19;99788.37;1831329;78;25694;-50
2020/12/11 06:36:20;;;;;;;57.70;24.82;;;;;;;0.84;87.19;99784.91;1830419;77;25660;-54
2020/12/11 06:38:58;;;;;;;51.73;24.40;;;;;;;0.85;87.24;99789.98;1831345;78;25588;-49
2020/12/11 06:41:34;;;;;;;51.18;23.92;;;;;;;0.86;87.18;99787.58;1831214;78;25607;-51
2020/12/11 06:44:15;;;;;;;53.75;25.43;;;;;;;0.89;87.21;99788.94;1831365;78;26227;-54
2020/12/11 06:46:42;;;;;;;56.55;24.70;;;;;;;0.89;87.17;99788.41;1831378;78;25674;-55
2020/12/11 06:49:12;;;;;;;51.37;23.42;;;;;;;0.89;87.13;99779.09;1831023;78;25752;-54
2020/12/11 06:51:53;;;;;;;54.85;24.55;;;;;;;0.90;87.10;99782.03;1831135;78;26344;-46
2020/12/11 06:54:28;;;;;;;56.18;25.72;;;;;;;0.91;87.09;99780.16;1831091;78;25747;-47
2020/12/11 06:57:00;;;;;;;49.88;22.05;;;;;;;0.90;87.07;99782.03;1831158;78;25769;-51
2020/12/11 06:59:34;;;;;;;53.90;25.10;;;;;;;0.90;87.04;99785.20;1831142;78;26282;-55
2020/12/11 07:02:10;;;;;;;52.27;24.00;;;;;;;0.90;87.04;99790.53;1831085;78;25581;-54
2020/12/11 07:04:44;;;;;;;55.65;24.52;;;;;;;0.89;86.98;99787.08;1831209;78;25660;-55
2020/12/11 07:07:12;;;;;;;52.88;25.35;;;;;;;0.89;87.04;99791.06;1830143;78;25566;-55
2020/12/11 07:09:44;;;;;;;52.95;25.45;;;;;;;0.90;87.04;99786.53;1849260;76;26218;-54
2020/12/11 07:12:12;;;;;;;47.50;23.98;;;;;;;0.91;87.02;99790.81;1856410;77;25740;-50
2020/12/11 07:14:39;;;;;;;53.83;25.90;;;;;;;0.91;87.01;99784.95;1874600;75;25627;-52
2020/12/11 07:17:05;;;;;;;52.15;24.10;;;;;;;0.92;87.04;99788.44;1814064;79;25599;-53
2020/12/11 07:19:36;;;;;;;48.63;23.02;;;;;;;0.94;87.06;99791.64;1815611;78;25676;-53
2020/12/11 07:22:04;;;;;;;45.80;22.87;;;;;;;0.96;87.02;99792.72;1813941;79;25865;-50
2020/12/11 07:24:33;;;;;;;49.18;23.60;;;;;;;0.98;87.09;99786.59;1815836;78;25792;-49
2020/12/11 07:27:06;;;;;;;46.88;23.38;;;;;;;1.00;87.08;99791.92;1776802;79;25973;-56
2020/12/11 07:29:33;;;;;;;49.53;23.30;;;;;;;1.03;87.02;99790.63;1713269;83;25631;-57
2020/12/11 07:32:00;;;;;;;44.45;21.70;;;;;;;1.04;86.93;99793.54;1720808;83;25731;-57
2020/12/11 07:34:29;;;;;;;48.23;22.85;;;;;;;1.04;86.87;99793.54;1722115;83;25703;-56
2020/12/11 07:36:58;;;;;;;44.90;22.20;;;;;;;1.05;86.87;99797.81;1722475;82;26888;-56
2020/12/11 07:39:29;;;;;;;49.03;24.63;;;;;;;1.05;86.90;99799.15;1724676;82;25650;-55
2020/12/11 07:42:04;;;;;;;49.05;23.60;;;;;;;1.03;86.80;99795.41;1726287;82;25713;-58
2020/12/11 07:44:34;;;;;;;49.40;24.15;;;;;;;1.05;86.96;99795.16;1722218;83;25905;-55
2020/12/11 07:47:08;;;;;;;53.95;25.25;;;;;;;1.07;87.03;99792.52;1722346;83;25633;-53
2020/12/11 07:49:39;;;;;;;47.35;23.22;;;;;;;1.09;87.03;99790.91;1722139;83;26016;-57
2020/12/11 07:52:22;;;;;;;51.60;24.60;;;;;;;1.16;86.94;99784.84;1886222;76;33758;-60
2020/12/11 07:54:49;;;;;;;47.17;23.47;;;;;;;1.10;86.93;99787.98;1857126;77;25783;-58
2020/12/11 07:57:19;;;;;;;49.58;25.62;;;;;;;1.08;86.87;99787.45;1857031;77;26183;-57
2020/12/11 08:00:02;;;;;;;51.42;24.52;;;;;;;1.10;86.98;99787.19;1857061;77;25722;-58
2020/12/11 08:02:33;;;;;;;56.55;25.88;;;;;;;1.11;87.01;99784.27;1857196;77;25690;-57
2020/12/11 08:04:58;;;;;;;56.53;26.80;;;;;;;1.13;86.94;99778.69;1856821;77;26232;-57
2020/12/11 08:07:30;;;;;;;57.98;24.98;;;;;;;1.14;86.93;99774.95;1857200;77;25720;-57
2020/12/11 08:10:13;;;;;;;58.30;26.35;;;;;;;1.18;87.00;99781.92;1857126;77;26002;-58
2020/12/11 08:12:40;;;;;;;51.80;25.08;;;;;;;1.19;87.07;99778.17;1857068;77;26025;-57
2020/12/11 08:15:09;;;;;;;61.75;28.17;;;;;;;1.21;87.01;99778.20;1857105;77;25767;-57
2020/12/11 08:17:37;;;;;;;50.23;24.43;;;;;;;1.21;86.85;99782.70;1857045;76;25702;-54
2020/12/11 08:20:07;;;;;;;50.80;23.65;;;;;;;1.18;86.78;99780.05;1857145;77;25628;-58
2020/12/11 08:22:38;;;;;;;;;;;;;;;1.19;86.85;99784.84;1859929;77;25698;-56
2020/12/11 08:25:21;;;;;;;48.42;22.98;;;;;;;1.21;86.87;99790.70;1857062;77;25654;-57
2020/12/11 08:27:49;;;;;;;49.03;23.10;;;;;;;1.22;86.92;99789.66;1845312;77;25695;-56
2020/12/11 08:30:18;;;;;;;49.10;24.02;;;;;;;1.21;86.89;99788.86;1856992;77;25719;-57
2020/12/11 08:32:48;;;;;;;50.88;25.12;;;;;;;1.24;86.90;99796.84;1857248;77;25739;-59
2020/12/11 08:35:17;;;;;;;;;;;;;;;1.23;86.80;99796.59;1858869;77;26228;-56
2020/12/11 08:37:58;;;;;;;49.55;23.62;;;;;;;1.23;86.72;99795.27;1843197;77;25637;-52
2020/12/11 08:40:32;;;;;;;44.55;21.95;;;;;;;1.19;86.70;99787.50;1843473;77;25692;-51
2020/12/11 08:49:02;;;;;;;54.55;26.20;;;;;;;1.20;86.78;99783.78;1843389;77;26323;-55
2020/12/11 08:51:25;;;;;;;53.00;25.90;;;;;;;1.21;86.83;99784.86;1842224;77;25817;-55
2020/12/11 08:53:55;;;;;;;51.48;25.62;;;;;;;1.21;86.79;99787.53;1843349;77;25725;-55
2020/12/11 08:56:20;;;;;;;51.80;26.02;;;;;;;1.22;86.76;99782.98;1843089;77;25747;-56
2020/12/11 08:58:47;;;;;;;53.13;26.10;;;;;;;1.21;86.85;99778.20;1843376;77;25685;-55
2020/12/11 09:01:13;;;;;;;48.78;25.30;;;;;;;1.21;86.95;99773.38;1843240;77;25888;-58
2020/12/11 09:03:40;;;;;;;53.80;26.50;;;;;;;1.27;87.18;99778.48;1842647;77;25728;-57
2020/12/11 09:06:07;;;;;;;48.83;24.92;;;;;;;1.29;87.02;99777.71;1842666;77;25619;-57
2020/12/11 09:08:33;;;;;;;51.58;25.68;;;;;;;1.33;86.91;99774.50;1842766;77;25736;-53
2020/12/11 09:11:00;;;;;;;47.43;23.75;;;;;;;1.31;86.89;99777.42;1842627;77;25635;-57
2020/12/11 09:13:27;;;;;;;50.95;24.70;;;;;;;1.34;86.84;99766.80;1842678;77;26403;-56
2020/12/11 09:15:53;;;;;;;43.10;23.25;;;;;;;1.34;86.83;99764.13;1842638;77;26252;-52
2020/12/11 09:18:20;;;;;;;46.53;22.77;;;;;;;1.36;86.73;99769.99;1842794;77;25615;-56
2020/12/11 09:20:47;;;;;;;44.65;21.35;;;;;;;1.34;86.74;99762.25;1842499;77;25566;-58
2020/12/11 09:23:13;;;;;;;43.63;22.45;;;;;;;1.34;86.67;99758.26;1842711;77;25287;-54
2020/12/11 09:25:42;;;;;;;45.17;21.80;;;;;;;1.35;86.73;99748.42;1848157;76;27052;-55
2020/12/11 09:28:18;;;;;;;42.80;22.03;;;;;;;1.35;86.68;99761.20;1791767;76;2197667;-50
2020/12/11 09:30:49;;;;;;;43.02;21.62;;;;;;;1.35;86.74;99757.20;1762252;80;25700;-57
2020/12/11 09:36:00;;;;;;;40.90;22.27;;;;;;;1.47;86.76;99752.98;1815152;78;33453;-54
2020/12/11 09:38:27;;;;;;;43.83;22.80;;;;;;;1.40;86.83;99747.90;1766418;80;25655;-60
2020/12/11 09:40:59;;;;;;;42.53;22.45;;;;;;;1.45;86.89;99749.79;1780350;80;26385;-60
2020/12/11 09:48:56;;;;;;;48.55;21.87;;;;;;;1.45;86.77;99755.91;1755550;80;25708;-61
2020/12/11 09:51:41;;;;;;;41.08;20.35;;;;;;;1.38;86.74;99744.70;1759351;80;26196;-56
2020/12/11 09:56:24;;;;;;;38.48;20.00;;;;;;;1.45;86.78;99743.13;1765401;80;25648;-59
2020/12/11 09:58:57;;;;;;;43.17;21.05;;;;;;;1.46;86.72;99734.87;1762921;79;26500;-57
2020/12/11 10:01:31;;;;;;;43.28;21.45;;;;;;;1.46;86.67;99726.87;1799947;79;25723;-57
2020/12/11 10:03:56;;;;;;;42.55;19.85;;;;;;;1.49;86.78;99730.33;1801952;79;25633;-59
2020/12/11 10:06:26;;;;;;;45.50;22.00;;;;;;;1.53;87.03;99727.94;1802646;79;27074;-57
2020/12/11 10:08:53;;;;;;;45.00;21.95;;;;;;;1.56;86.83;99727.95;1802419;79;26390;-56
2020/12/11 10:11:21;;;;;;;44.45;19.80;;;;;;;1.58;86.83;99727.95;1802325;79;25649;-58
2020/12/11 10:13:52;;;;;;;41.50;19.90;;;;;;;1.57;86.55;99721.03;1765675;79;25660;-54
2020/12/11 10:16:17;;;;;;;42.20;20.37;;;;;;;1.55;86.49;99718.34;1766822;80;25795;-56
2020/12/11 10:18:44;;;;;;;46.58;21.68;;;;;;;1.55;86.48;99709.02;1761832;80;25918;-57
2020/12/11 10:21:12;;;;;;;38.38;19.37;;;;;;;1.58;86.60;99708.49;1725258;82;25731;-58
2020/12/11 10:23:39;;;;;;;40.48;19.42;;;;;;;1.63;86.70;99705.84;1732074;81;25685;-56
2020/12/11 10:26:06;;;;;;;33.73;18.30;;;;;;;1.64;86.57;99703.45;1736438;82;25716;-58
2020/12/11 10:28:33;;;;;;;37.88;18.45;;;;;;;1.67;86.52;99703.72;1736525;81;25656;-58
2020/12/11 10:31:00;;;;;;;41.33;20.55;;;;;;;1.70;86.49;99694.38;1736395;82;25859;-56
2020/12/11 10:33:29;;;;;;;36.08;17.95;;;;;;;1.75;86.59;99701.59;1736336;81;25618;-52
2020/12/11 10:35:56;;;;;;;38.93;18.07;;;;;;;1.75;86.41;99702.39;1754830;81;25651;-57
2020/12/11 10:38:23;;;;;;;33.10;16.85;;;;;;;1.79;86.38;99706.14;1758326;81;25690;-56
2020/12/11 10:40:50;;;;;;;34.60;17.17;;;;;;;1.80;86.22;99695.73;1758145;81;25691;-56
2020/12/11 10:43:17;;;;;;;37.23;18.32;;;;;;;1.81;86.18;99693.34;1758269;81;26161;-58
2020/12/11 10:45:44;;;;;;;36.58;18.57;;;;;;;1.84;86.30;99686.14;1757902;81;25731;-51
2020/12/11 10:48:11;;;;;;;37.58;19.12;;;;;;;1.92;86.43;99697.34;1757721;81;26189;-57
2020/12/11 10:50:38;;;;;;;41.30;19.02;;;;;;;1.95;86.31;99694.16;1757721;81;26259;-53
2020/12/11 10:53:05;;;;;;;36.75;18.82;;;;;;;1.98;86.22;99697.63;1757658;81;25602;-57
2020/12/11 10:55:31;;;;;;;37.65;19.50;;;;;;;2.02;86.20;99698.14;1757709;81;26244;-58
2020/12/11 10:57:58;;;;;;;42.23;20.80;;;;;;;2.08;86.22;99685.62;1763166;80;25651;-57
2020/12/11 11:00:25;;;;;;;44.13;20.90;;;;;;;2.11;86.18;99681.09;1757531;81;25636;-58
2020/12/11 11:02:51;;;;;;;44.53;21.37;;;;;;;2.15;86.11;99686.15;1757701;81;25589;-58
2020/12/11 11:05:18;;;;;;;41.83;20.90;;;;;;;2.20;86.04;99684.02;1757809;81;26012;-49
2020/12/11 11:07:45;;;;;;;37.90;19.17;;;;;;;2.22;86.05;99690.67;1757694;81;25763;-58
2020/12/11 11:10:21;;;;;;;34.70;17.70;;;;;;;2.21;85.63;99684.27;1757662;81;25689;-61
2020/12/11 11:13:02;;;;;;;35.23;18.55;;;;;;;2.16;85.36;99685.61;1756702;81;25635;-57
2020/12/11 11:28:04;;;;;;;40.60;18.02;;;;;;;2.16;85.59;99690.44;1757649;81;25550;-58
2020/12/11 11:30:32;;;;;;;33.90;18.90;;;;;;;2.18;85.76;99690.14;1757648;81;26057;-54
2020/12/11 11:33:00;;;;;;;35.78;18.20;;;;;;;2.19;85.62;99688.53;1757691;81;25945;-60
2020/12/11 11:38:09;;;;;;;36.08;18.35;;;;;;;2.20;85.29;99690.15;1846881;76;35117;-56
2020/12/11 11:40:38;;;;;;;37.35;17.12;;;;;;;2.11;85.27;99682.43;1816639;78;25760;-54
2020/12/11 11:43:03;;;;;;;33.92;18.02;;;;;;;2.10;85.32;99684.03;1816405;78;26324;-58
2020/12/11 11:45:34;;;;;;;36.48;17.32;;;;;;;2.11;85.57;99684.28;1816724;78;25816;-55
2020/12/11 11:47:58;;;;;;;35.52;17.05;;;;;;;2.10;85.31;99680.81;1816440;78;25720;-53
2020/12/11 11:53:16;;;;;;;35.68;17.57;;;;;;;2.12;85.64;99669.34;1816998;78;25650;-53
2020/12/11 11:55:47;;;;;;;35.03;17.73;;;;;;;2.14;85.61;99668.53;1814571;77;26210;-54
2020/12/11 11:58:15;;;;;;;36.60;18.80;;;;;;;2.14;85.46;99675.20;1783149;77;25553;-57
2020/12/11 12:00:42;;;;;;;40.17;18.32;;;;;;;2.14;85.47;99681.87;1753313;80;25813;-57
2020/12/11 12:03:09;;;;;;;39.10;18.00;;;;;;;2.16;85.50;99677.60;1783427;80;26473;-57
2020/12/11 12:05:36;;;;;;;39.78;18.77;;;;;;;2.17;85.54;99670.66;1783635;80;25670;-57
2020/12/11 12:08:03;;;;;;;39.35;19.50;;;;;;;2.18;85.48;99663.45;1783646;80;25750;-55
2020/12/11 12:10:29;;;;;;;39.10;18.42;;;;;;;2.18;85.49;99662.94;1783407;80;25651;-54
2020/12/11 12:12:57;;;;;;;40.58;17.90;;;;;;;2.19;85.50;99663.19;1783414;80;25822;-58